Etusivu
METAR-TAF:

METAR-TAF

Lentoasemat :

Kirsch Municipal Airport

Sturgis, Michigan, Yhdysvallat

Leveyspiiri: 41-48-46N, Pituuspiiri: 085-26-21W, korkeus merenpinnasta: 282 m

Tämänhetkinen sää

Tämä raportti tehtiin 13 minuuttia sitten, kello 03.15 UTC
Tuuli 4 kn koillisesta
Lämpötila 3°C
Kosteus 100%
Ilmanpaine 1011 hPa
Näkyvyys: 4.8 km
Hajanaisia pilviä 400 ft:n korkeudessa
Hajanaisia pilviä 900 ft:n korkeudessa
Pilvistä 1700 ft:n korkeudessa
utua

METAR: KIRS 250315Z AUTO 04004KT 3SM BR SCT004 SCT009 OVC017 03/03 A2984 RMK AO2 T00300026

Aika: 22:28 (03:28 UTC)


TAF: puuttuu

Säähavainnot ja -ennusteet yli 4000 lentoasemalta (METAR- ja TAF-raportit).

Käytössä olevat sääasemat on merkitty karttaan keltaisilla ja punaisilla pisteillä.

Aseta hiiri pisteen päälle nähdäksesi sääaseman nimen.

Klikkaa sitten nähdäksesi säähavainnot ja -ennusteet.

Kartan vaihtaminen: klikkaa mustalla rastilla varustettuja vihreitä pisteitä, niin voit zoomata sisään; viivalla varustettua vihreää pistettä, niin voit zoomata ulos tai vihreitä nuolia, niin pääset viereisille kartoille.


METAR-TAF: